Racecast

Ty Bakker

Thompson Valley (CO) · 12 · Compare head to head

Athlete rating 125.1 2025 TF season
Best race 136.1 TF
Races 79
Seasons 7 2018 — 2025

RankedNation #6852·CO #219·CO D4A #119·NORTHERN #10·Team #14 ?

Rating scale ?
Speed rating — all races

Cross Country

XC speed rating

2024 XC 128.5

Thompson Valley (CO) · Grade 12

Date Meet Event Result Place Rating Difficulty PR/SR Flags
2024-11-23 Toka Sticks Golf Course 5000m 16:20.2 171st · 7th on team 126.7 +0.009
2024-11-02 Norris Penrose Event Center 5000m 16:23.5 17th · 4th on team 132.0 +0.067 ★CR CSR RSR
2024-09-27 Toka Sticks Golf Course 5000m 15:46.3 45th · 3rd on team 131.7 +0.009 ★PR ★CR SR CSR RSR
2024-09-20 Lincoln Park Golf Course 5000m 16:01.5 18th · 7th on team 126.2 -0.012 PR ★CR SR CSR
2024-08-31 Fort Collins High School 5000m 16:27 16th · 5th on team 128.6 +0.023 PR ★CR SR CSR RSR
2024-08-24 Mountain Vista High School 3218m 10:40 17th · 3rd on team 125.7 +0.067 ★CR SR CSR RSR

2023 XC 122.3

Thompson Valley (CO) · Grade 11

Date Meet Event Result Place Rating Difficulty PR/SR Flags
2023-11-18 Coyote Run Golf Course at Leisure World 5000m 17:19.8 233rd · 7th on team 121.8 +0.029 CSR
2023-10-28 Norris Penrose Event Center 5000m 17:19.1 74th · 7th on team 124.7 +0.067 CSR
2023-10-19 Monfort Park 5000m 16:51.2 9th · 4th on team 125.2 +0.019 ★CR CSR
2023-09-03 Little America Golf Course 5000m 18:59.4 86th · 9th on team 115.1 +0.065 ★CR CSR
2023-08-26 Fort Collins High School 5000m 16:30 8th · 3rd on team 125.6 +0.023 PR CR SR CSR RSR
2023-08-19 Berthoud High School 3218m 10:30 12th · 4th on team 121.3 +0.007 ★PR ★CR SR CSR RSR

2022 XC 124.7

Thompson Valley (CO) · Grade 10

Date Meet Event Result Place Rating Difficulty PR/SR Flags
2022-11-19 Coyote Run Golf Course at Leisure World 5000m 16:32.8 11th · 1st on team 128.8 +0.029 PR ★CR SR CSR RSR
2022-10-29 Norris Penrose Event Center 5000m 17:15.3 54th · 2nd on team 127.2 +0.067 CR CSR RSR
2022-10-20 Lyons Middle/High School 5000m 17:39.2 7th · 2nd on team 121.4 +0.046
2022-10-12 Riverside Park 5000m 16:37.4 10th · 2nd on team 125.4 +0.005 PR ★CR SR CSR
2022-09-30 North Lake Park 5000m 16:56 3rd · 1st on team 127.0 +0.041 PR ★CR SR CSR RSR
2022-09-17 Lyons Middle/High School 5000m 17:26.3 62nd · 2nd on team 124.4 +0.046 ★CR CSR RSR
2022-08-27 Fort Collins High School 5000m 17:44 27th · 1st on team 120.0 +0.023 CR CSR
2022-08-20 Spring Canyon Park 5000m 17:16 14th · 1st on team 123.7 +0.037 ★CR SR CSR RSR

2021 XC 119.7

Thompson Valley (CO) · Grade 9

Date Meet Event Result Place Rating Difficulty PR/SR Flags
2021-11-20 Shalimar Country Club 5000m 17:08.3 77th · 3rd on team 122.6 +0.005 PR ★CR SR CSR RSR
2021-10-21 Lyons Middle/High School 5000m 18:02.2 24th · 3rd on team 121.4 +0.046 CR CSR
2021-10-13 Riverside Park 5000m 17:47.1 23rd · 4th on team 118.2 +0.005 PR CR SR CSR
2021-09-25 River's Edge Natural Area 5000m 17:57 10th · 5th on team 117.2 +0.003 ★CR CSR
2021-09-11 Cattails Golf Course 5000m +0.012 ★CR CSR
2021-08-28 Cherry Creek State Park 5000m 17:50.1 3rd · 1st on team 122.3 +0.033 PR ★CR SR CSR RSR
2021-08-21 Spring Canyon Park 5000m 18:34 34th · 2nd on team 116.1 +0.037 PR CR SR CSR RSR

2019 XC

32-Unattached (CO) · Grade 7

Date Meet Event Result Place Rating Difficulty PR/SR Flags
2019-11-16 Santa Ana Golf Club 4000m 14:36.2 32nd · 4th on team +0.040 ★PR ★CR SR CSR

2018 XC 79.8

Bill Reed (CO) · Grade 6

Date Meet Event Result Place Rating Difficulty PR/SR Flags
2018-10-20 Fehringer Ranch Park 2655m 14:12.4 68th · 3rd on team 88.8 ★PR ★CR R SR CSR RSR
2018-09-21 North Lake Park 2092m 13:55 31st · 5th on team 70.8 ★PR ★CR R SR CSR RSR

Track & Field

TF speed rating

2025 TF 121.1

Thompson Valley (CO) · Grade 12

Date Meet Event Result Place Rating Difficulty PR/SR Flags
2025-05-10 Teddy's Last Chance Qualifier 800m 2:08.51 47th · 3rd on team 119.7 -0.014
2025-04-30 Longs Peak and Rocky Mountain League Meet 800m 2:07.9 12th · 3rd on team 120.2 -0.014
2025-04-23 NOCO MVHS - TVHS Qualifier 800m 2:02.46 9th · 6th on team 126.3 -0.006 ★PR SR
2025-04-19 Randall Hess Roughrider Invitational 1600m 4:28.22 15th · 3rd on team 128.0 -0.014 ★PR SR RSR
2025-04-05 Altitude Running Invite 1600m 4:48.93 16th · 4th on team 119.1 -0.012 SR RSR
2025-03-29 Niwot Invitational 3200m 10:32.45 46th · 7th on team 117.4 -0.014 SR RSR
2025-03-15 Murray Kula Invitational 800m 2:12.62 18th · 2nd on team 117.2 -0.008 SR RSR

2024 TF 120.7

Thompson Valley (CO) · Grade 11

Date Meet Event Result Place Rating Difficulty PR/SR Flags
2024-05-11 Teddy's Last Chance Qualifier 800m 2:05.22 38th · 3rd on team 122.7 -0.014 PR SR
2024-05-10 HOKA St. Vrain Invitational 1600m 4:35.17 55th · 4th on team 124.2 -0.015 PR SR RSR
2024-04-29 Randall Hess Roughrider Invitational 1600m 4:38.58 7th · 1st on team 123.0 -0.014 PR SR RSR
2024-04-04 Altitude Running Invitational 1600m 4:44.22 5th · 2nd on team 121.4 -0.009 PR SR RSR
2024-03-30 University Bulldog Invitational 3200m 10:22.36 4th · 2nd on team 118.8 -0.011 ★PR SR RSR
2024-03-30 University Bulldog Invitational 800m 2:08.72 8th · 3rd on team 119.7 -0.011 PR SR RSR
2024-03-22 Race results → 1600m 4:54.06 22nd · 4th on team 115.2 SR RSR

2023 TF 119.6

Thompson Valley (CO) · Grade 10

Date Meet Event Result Place Rating Difficulty PR/SR Flags
2023-04-14 KC Logan R2J Invitational 1600m 4:46.76 3rd · 2nd on team 121.0 -0.006 PR SR RSR
2023-04-07 Birds of Prey Invitational 3200m 10:25.57 7th · 2nd on team 120.0 +0.001 PR SR RSR
2023-03-24 Runners Roost of Fort Collins Invitational 800m 2:11.38 24th · 4th on team 117.8 -0.011 PR SR RSR

2022 TF 115.9

Thompson Valley (CO) · Grade 9

Date Meet Event Result Place Rating Difficulty PR/SR Flags
2022-05-14 Randall Hess Invitational 3200m 10:35.27 5th · 1st on team 117.9 -0.014 PR SR
2022-05-13 St. Vrain HOKA Invitational 1600m 4:49.19 76th · 1st on team 119.8 -0.015 PR SR RSR
2022-05-07 Longs Peak/NCAC/Mile High League Meets 1600m 4:55.09 10th · 1st on team 117.5 -0.015
2022-05-02 NoCo Series #3 1600m 4:53.34 10th · 1st on team 118.8 -0.008 PR SR RSR
2022-04-16 Mountain Range Mustang Invitational 3200m 10:54.95 17th · 1st on team 114.8 -0.006
2022-04-09 David S. D'Evelyn Invitational 1600m 5:07.63 19th · 1st on team 112.6 -0.011 PR SR
2022-04-02 University Bulldog Invitational 3200m 10:41.19 10th · 2nd on team 116.9 -0.011 PR SR RSR
2022-04-02 University Bulldog Invitational 800m 2:17.29 14th · 1st on team 112.9 -0.011 PR SR
2022-03-25 Max Marr Invitational 3200m 10:49.68 5th · 1st on team 116.0 -0.006 PR SR RSR
2022-03-19 Murray Kula Invitational 1600m 5:10.05 32nd · 1st on team 112.1 -0.008 PR SR RSR

2021 TF 129.8

Bill Reed (CO) · Grade 8

Date Meet Event Result Place Rating Difficulty PR/SR Flags
2021-05-19 Bill Reed vs Walt Clark 400m 1:02.44 1st · 1st on team -0.009 ★PR SR
2021-05-12 Bill Reed vs. Severance MS 1600m 5:31 1st · 1st on team 127.8 +0.016
2021-05-12 Bill Reed vs. Severance MS 3200m 11:46 1st · 1st on team 129.0 +0.016
2021-05-12 Bill Reed vs. Severance MS 400m 1:09.14 5th · 5th on team +0.016 PR SR
2021-05-05 Bill Reed vs. Turner hj 4 6 -0.001
2021-05-05 Bill Reed vs. Turner 800m 2:30 1st · 1st on team 126.5 -0.001 PR SR
2021-05-05 Bill Reed vs. Turner 3200m 10:56 1st · 1st on team 136.1 -0.001 PR ★R SR RSR
2021-04-28 Bill Reed vs Erwin 800m 2:32.5 1st · 1st on team 127.0 +0.016 PR SR
2021-04-28 Bill Reed vs Erwin 1600m 5:18 1st · 1st on team 133.4 +0.016 PR R SR RSR
2021-03-06 Colorado Elite Winter Series Meet #3 3200m 11:31.14 12th · 11th on team 128.7 -0.009 PR R SR RSR

2019 TF 117.5

Bill Reed (CO) · Grade 6

Date Meet Event Result Place Rating Difficulty PR/SR Flags
2019-05-13 NCAC MS Conference Meet 3200m 11:55.07 3rd · 1st on team 124.7 -0.008
2019-05-13 NCAC MS Conference Meet 1600m 5:52.86 16th · 3rd on team 117.7 -0.008 PR SR
2019-04-24 BRMS vs. SMS lj 10 11.5 -0.008
2019-04-24 BRMS vs. SMS 1600m 5:54 2nd · 2nd on team 117.3 -0.008 PR SR
2019-04-24 BRMS vs. SMS 3200m 12:45 2nd · 2nd on team 117.0 -0.008
2019-04-18 Bill Reed vs. Erwin 1600m 6:00 3rd · 3rd on team 115.9 -0.008
2019-04-16 Bill Reed vs. Turner 1600m 5:58.5 2nd · 2nd on team 115.7 -0.008 PR SR
2019-04-16 Bill Reed vs. Turner 3200m 11:51.8 2nd · 2nd on team 125.1 -0.008 PR R SR RSR
2019-04-03 BRMS vs. WCMS 3200m 12:32 2nd · 2nd on team 118.1 -0.008 PR R SR RSR
2019-04-03 BRMS vs. WCMS 1600m 6:04 3rd · 3rd on team 113.6 -0.008 PR SR
2019-03-27 BRMS vs. Windsor 3200m 12:51 1st · 1st on team 115.6 -0.008 PR R SR RSR
2019-03-27 BRMS vs. Windsor 1600m 6:11 2nd · 2nd on team 111.5 -0.008 PR SR